Time;durP1;ratioP1;P1;durP2;ratioP2;P2;SDS_P1;SDS_P2;PMS_P1;PMS_P2;Temp;Humidity;BMP_temperature;BMP_pressure;BME280_temperature;BME280_humidity;BME280_pressure;Samples;Min_cycle;Max_cycle;Signal;HPM_P1;HPM_P2
2021/03/30 00:00:11;;;;;;;28.30;14.00;;;;;;;8.86;57.77;100328.43;114423;1209;103111;-80
2021/03/30 00:02:58;;;;;;;27.40;13.20;;;;;;;8.83;57.80;100331.22;114451;1209;104236;-80
2021/03/30 00:05:25;;;;;;;26.35;13.10;;;;;;;8.82;57.74;100325.03;114457;1206;103053;-81
2021/03/30 00:07:52;;;;;;;28.00;12.60;;;;;;;8.81;57.82;100323.31;114557;1206;103062;-81
2021/03/30 00:10:35;;;;;;;29.45;14.15;;;;;;;8.82;57.89;100324.19;114521;1204;103066;-81
2021/03/30 00:13:07;;;;;;;30.40;14.75;;;;;;;8.82;57.93;100324.19;114555;1206;103076;-81
2021/03/30 00:15:39;;;;;;;30.60;14.75;;;;;;;8.83;57.92;100324.10;114532;1206;103163;-79
2021/03/30 00:18:10;;;;;;;32.30;14.20;;;;;;;8.85;57.79;100324.90;114507;1206;103031;-78
2021/03/30 00:20:37;;;;;;;31.77;14.80;;;;;;;8.86;58.17;100316.01;114556;1206;103072;-80
2021/03/30 00:23:09;;;;;;;28.60;13.20;;;;;;;8.85;58.15;100314.28;114534;1206;103169;-80
2021/03/30 00:25:40;;;;;;;34.00;15.90;;;;;;;8.82;58.01;100309.11;114541;1206;103053;-80
2021/03/30 00:28:07;;;;;;;29.20;14.40;;;;;;;8.81;58.29;100310.05;114505;1209;103095;-81
2021/03/30 00:30:34;;;;;;;32.70;15.70;;;;;;;8.82;58.15;100313.58;114499;1209;103225;-81
2021/03/30 00:33:02;;;;;;;29.65;14.10;;;;;;;8.76;58.28;100315.58;114592;1206;103286;-82
2021/03/30 00:35:33;;;;;;;30.60;14.30;;;;;;;8.72;58.38;100306.03;114523;1206;103171;-81
2021/03/30 00:38:00;;;;;;;31.55;15.85;;;;;;;8.70;58.21;100305.23;114592;1206;103511;-82
2021/03/30 00:40:27;;;;;;;31.03;15.90;;;;;;;8.68;58.14;100308.90;114557;1206;103176;-82
2021/03/30 00:42:59;;;;;;;32.50;15.70;;;;;;;8.68;58.44;100307.09;114512;1206;103168;-82
2021/03/30 00:45:26;;;;;;;32.05;15.60;;;;;;;8.68;58.38;100304.44;114587;1206;103165;-82
2021/03/30 00:47:57;;;;;;;31.40;15.00;;;;;;;8.67;58.55;100300.06;114547;1206;103088;-82
2021/03/30 00:50:32;;;;;;;32.55;15.85;;;;;;;8.67;58.91;100296.56;114543;1206;103658;-82
2021/03/30 00:53:04;;;;;;;30.75;16.15;;;;;;;8.65;58.55;100296.63;114568;1206;103252;-82
2021/03/30 00:55:34;;;;;;;32.00;15.70;;;;;;;8.63;58.67;100294.05;114517;1206;103056;-82
2021/03/30 00:58:01;;;;;;;34.80;15.50;;;;;;;8.63;58.71;100295.83;114628;1206;103160;-79
2021/03/30 01:00:28;;;;;;;28.50;14.00;;;;;;;8.63;58.94;100294.05;114878;1206;103070;-80
2021/03/30 01:02:57;;;;;;;31.20;14.90;;;;;;;8.60;58.79;100291.53;114686;1206;103181;-82
2021/03/30 01:05:24;;;;;;;29.10;15.05;;;;;;;8.58;58.64;100290.73;114518;1206;103111;-83
2021/03/30 01:08:09;;;;;;;28.60;14.35;;;;;;;8.54;59.21;100289.16;114581;1206;103121;-79
2021/03/30 01:10:59;;;;;;;30.10;15.20;;;;;;;8.52;59.08;100283.05;114573;1209;103171;-79
2021/03/30 01:13:38;;;;;;;27.60;14.30;;;;;;;8.47;59.15;100293.84;114523;1206;103158;-81
2021/03/30 01:16:17;;;;;;;29.20;15.07;;;;;;;8.44;59.30;100293.10;114596;1206;103133;-80
2021/03/30 01:19:03;;;;;;;28.60;14.00;;;;;;;8.43;59.31;100292.26;114618;1206;103158;-82
2021/03/30 01:22:07;;;;;;;30.25;14.80;;;;;;;8.40;58.89;100287.09;114548;1206;103110;-83
2021/03/30 01:24:42;;;;;;;28.73;14.73;;;;;;;8.36;59.18;100288.14;114569;1206;103545;-84
2021/03/30 01:27:41;;;;;;;29.25;13.95;;;;;;;8.37;59.29;100286.34;114531;1206;103201;-84
2021/03/30 01:30:09;;;;;;;28.90;14.70;;;;;;;8.35;59.67;100289.92;114404;1206;103286;-83
2021/03/30 01:32:45;;;;;;;26.45;13.75;;;;;;;8.31;59.30;100285.71;114572;1209;103104;-82
2021/03/30 01:35:21;;;;;;;26.30;13.70;;;;;;;8.29;59.45;100290.22;114477;1206;103120;-80
2021/03/30 01:37:50;;;;;;;27.40;13.10;;;;;;;8.29;59.40;100287.56;114509;1206;102894;-80
2021/03/30 01:40:30;;;;;;;28.27;13.77;;;;;;;8.29;59.64;100284.04;114527;1206;103244;-81
2021/03/30 01:43:02;;;;;;;28.13;13.83;;;;;;;8.27;59.71;100286.77;114509;1206;103130;-81
2021/03/30 01:45:34;;;;;;;25.60;11.85;;;;;;;8.25;59.50;100288.63;114549;1206;103596;-80
2021/03/30 01:48:09;;;;;;;26.30;12.00;;;;;;;8.22;59.80;100291.41;114524;1206;103513;-80
2021/03/30 01:50:40;;;;;;;25.73;12.57;;;;;;;8.19;59.62;100296.84;114544;1206;103171;-82
2021/03/30 01:53:16;;;;;;;26.45;13.05;;;;;;;8.16;59.79;100281.06;114517;1209;103088;-84
2021/03/30 01:55:49;;;;;;;26.75;13.15;;;;;;;8.19;59.89;100292.38;114558;1206;103057;-81
2021/03/30 01:58:23;;;;;;;27.90;13.30;;;;;;;8.19;59.95;100287.08;114550;1206;103188;-82
2021/03/30 02:00:55;;;;;;;25.30;12.50;;;;;;;8.20;59.73;100285.31;114560;1206;103059;-81
2021/03/30 02:03:25;;;;;;;26.00;12.80;;;;;;;8.20;59.82;100295.91;114592;1206;103066;-82
2021/03/30 02:05:58;;;;;;;27.15;12.65;;;;;;;8.20;59.82;100287.96;114567;1206;103161;-81
2021/03/30 02:08:33;;;;;;;27.85;12.75;;;;;;;8.17;60.24;100288.09;114620;1206;103059;-81
2021/03/30 02:11:05;;;;;;;25.50;13.50;;;;;;;8.15;60.21;100280.19;114541;1206;103060;-81
2021/03/30 02:16:17;;;;;;;25.20;12.60;;;;;;;8.17;60.33;100283.63;114592;1206;103174;-81
2021/03/30 02:19:09;;;;;;;28.90;13.35;;;;;;;8.13;60.28;100279.42;114567;1208;103171;-81
2021/03/30 02:21:46;;;;;;;30.93;13.80;;;;;;;8.14;60.38;100278.50;114586;1206;103159;-83
2021/03/30 02:24:20;;;;;;;32.55;14.80;;;;;;;8.17;60.81;100280.98;114539;1206;103246;-82
2021/03/30 02:26:55;;;;;;;24.50;12.60;;;;;;;8.19;60.82;100268.53;114516;1206;103083;-83
2021/03/30 02:29:27;;;;;;;27.10;12.45;;;;;;;8.18;60.56;100271.27;114554;1206;103137;-85
2021/03/30 02:32:01;;;;;;;27.30;14.05;;;;;;;8.18;60.82;100265.96;114565;1206;103175;-85
2021/03/30 02:34:34;;;;;;;26.30;12.50;;;;;;;8.16;60.52;100260.70;114589;1206;103140;-86
2021/03/30 02:37:06;;;;;;;28.90;14.80;;;;;;;8.10;61.04;100266.30;114636;1206;103056;-87
2021/03/30 02:39:36;;;;;;;27.85;13.65;;;;;;;8.10;61.14;100257.47;114585;1206;103134;-83
2021/03/30 02:42:04;;;;;;;28.00;14.00;;;;;;;8.08;61.08;100254.91;114566;1206;103105;-81
2021/03/30 02:44:36;;;;;;;26.70;11.10;;;;;;;8.10;60.83;100254.83;114621;1206;103049;-83
2021/03/30 02:47:03;;;;;;;28.50;14.50;;;;;;;8.07;61.21;100254.95;114641;1206;103175;-82
2021/03/30 02:49:31;;;;;;;27.60;13.50;;;;;;;8.07;60.97;100247.00;114603;1208;103181;-82
2021/03/30 02:52:04;;;;;;;27.60;13.35;;;;;;;8.11;60.90;100253.90;114560;1206;103143;-81
2021/03/30 02:54:35;;;;;;;26.95;13.70;;;;;;;8.12;61.29;100252.97;114544;1206;103168;-85
2021/03/30 02:57:03;;;;;;;26.25;13.15;;;;;;;8.14;61.35;100252.00;114534;1206;103082;-85
2021/03/30 02:59:38;;;;;;;25.20;12.80;;;;;;;8.13;61.01;100258.22;114593;1206;103062;-85
2021/03/30 03:02:11;;;;;;;28.70;12.90;;;;;;;8.11;61.14;100257.42;114552;1206;103492;-85
2021/03/30 03:04:45;;;;;;;28.93;13.33;;;;;;;8.10;61.17;100266.30;114537;1206;103152;-84
2021/03/30 03:07:12;;;;;;;25.20;13.07;;;;;;;8.10;61.44;100268.08;114826;1206;103171;-85
2021/03/30 03:09:44;;;;;;;26.63;12.73;;;;;;;8.09;61.71;100269.88;114574;1206;103104;-86
2021/03/30 03:12:17;;;;;;;28.05;13.60;;;;;;;8.11;61.74;100268.02;114598;1206;103210;-88
2021/03/30 03:14:52;;;;;;;26.10;12.60;;;;;;;8.12;61.51;100266.22;114530;1206;103232;-84
2021/03/30 03:17:25;;;;;;;25.75;13.00;;;;;;;8.10;61.41;100266.30;114548;1206;103063;-84
2021/03/30 03:19:58;;;;;;;26.60;12.50;;;;;;;8.13;61.66;100266.17;114590;1209;103178;-85
2021/03/30 03:22:26;;;;;;;23.20;11.10;;;;;;;8.13;61.49;100259.99;114508;1209;103133;-84
2021/03/30 03:24:56;;;;;;;27.65;14.35;;;;;;;8.14;61.64;100267.02;114576;1206;103040;-84
2021/03/30 03:27:24;;;;;;;25.50;13.40;;;;;;;8.16;61.62;100262.52;114549;1206;103208;-84
2021/03/30 03:29:56;;;;;;;30.10;15.30;;;;;;;8.15;61.69;100261.63;114539;1206;103127;-84
2021/03/30 03:32:29;;;;;;;35.90;19.60;;;;;;;8.13;61.58;100250.27;114575;1209;103091;-84
2021/03/30 03:34:56;;;;;;;35.40;20.50;;;;;;;8.12;62.19;100253.84;114572;1209;103181;-83
2021/03/30 03:37:23;;;;;;;35.00;19.10;;;;;;;8.12;62.02;100248.55;114598;1206;103102;-83
2021/03/30 03:39:50;;;;;;;31.95;17.05;;;;;;;8.11;61.90;100248.59;114576;1206;103118;-83
2021/03/30 03:42:18;;;;;;;28.45;15.35;;;;;;;8.12;62.17;100250.32;114561;1206;103188;-84
2021/03/30 03:44:48;;;;;;;29.00;15.30;;;;;;;8.08;62.10;100256.68;114589;1209;103236;-85
2021/03/30 03:47:24;;;;;;;28.20;13.70;;;;;;;8.06;62.16;100248.81;114569;1206;103165;-86
2021/03/30 03:49:54;;;;;;;25.55;12.20;;;;;;;8.01;61.85;100243.69;114588;1206;103575;-87
2021/03/30 03:52:26;;;;;;;27.15;12.60;;;;;;;8.00;61.88;100246.42;114540;1206;103258;-83
2021/03/30 03:55:02;;;;;;;24.60;11.85;;;;;;;7.95;62.06;100240.45;114554;1206;103152;-83
2021/03/30 03:57:59;;;;;;;23.63;11.93;;;;;;;7.85;61.67;100243.49;114541;1208;103093;-84
2021/03/30 04:00:29;;;;;;;28.85;12.10;;;;;;;7.80;62.07;100240.17;114575;1206;103200;-84
2021/03/30 04:03:24;;;;;;;24.50;12.40;;;;;;;7.75;62.06;100236.85;114598;1206;103091;-86
2021/03/30 04:06:09;;;;;;;24.45;11.50;;;;;;;7.73;62.12;100250.17;114576;1209;103181;-87
2021/03/30 04:08:48;;;;;;;27.60;13.35;;;;;;;7.73;62.52;100249.33;114537;1209;103159;-84
2021/03/30 04:11:20;;;;;;;26.00;12.50;;;;;;;7.73;62.38;100246.68;114547;1206;103101;-82
2021/03/30 04:13:51;;;;;;;27.50;13.15;;;;;;;7.77;62.78;100245.59;114565;1206;103094;-81
2021/03/30 04:16:22;;;;;;;26.80;14.50;;;;;;;7.77;62.62;100245.59;114518;1206;103203;-82
2021/03/30 04:18:49;;;;;;;28.20;14.50;;;;;;;7.77;62.50;100255.34;114477;1206;103329;-80
2021/03/30 04:21:35;;;;;;;27.90;15.10;;;;;;;7.74;62.74;100251.90;114540;1206;103143;-79
2021/03/30 04:24:02;;;;;;;25.77;14.27;;;;;;;7.77;62.91;100252.70;114564;1206;103133;-78
2021/03/30 04:26:39;;;;;;;27.35;15.05;;;;;;;7.80;63.17;100260.52;114537;1206;103165;-82
2021/03/30 04:29:07;;;;;;;27.87;15.90;;;;;;;7.82;63.20;100256.02;114506;1208;103089;-80
2021/03/30 04:31:36;;;;;;;28.45;14.85;;;;;;;7.84;62.88;100259.47;114511;1206;103197;-80
2021/03/30 04:34:03;;;;;;;30.40;14.90;;;;;;;7.87;62.85;100275.23;114491;1206;103110;-79
2021/03/30 04:36:30;;;;;;;27.15;13.25;;;;;;;7.87;63.36;100270.78;114525;1206;103057;-80
2021/03/30 04:38:57;;;;;;;27.77;14.20;;;;;;;7.86;62.98;100273.51;114539;1209;103182;-81
2021/03/30 04:41:25;;;;;;;25.80;14.90;;;;;;;7.85;63.00;100267.33;114529;1206;103101;-78
2021/03/30 04:43:55;;;;;;;26.55;14.60;;;;;;;7.87;63.40;100273.43;114530;1204;103209;-79
2021/03/30 04:46:22;;;;;;;31.73;16.97;;;;;;;7.88;63.45;100275.16;114494;1206;103179;-82
2021/03/30 04:48:51;;;;;;;28.80;16.40;;;;;;;7.90;63.44;100275.95;114550;1206;103108;-80
2021/03/30 04:51:19;;;;;;;28.50;16.05;;;;;;;7.89;63.62;100276.03;114428;1208;103105;-82
2021/03/30 04:53:46;;;;;;;28.80;16.30;;;;;;;7.89;63.50;100279.53;114520;1206;103094;-82
2021/03/30 04:56:13;;;;;;;28.23;14.93;;;;;;;7.88;63.57;100277.80;114485;1206;103200;-81
2021/03/30 04:58:41;;;;;;;29.30;16.50;;;;;;;7.89;63.72;100284.83;114488;1206;103163;-83
2021/03/30 05:01:08;;;;;;;31.63;15.70;;;;;;;7.90;63.76;100283.05;114543;1206;103159;-81
2021/03/30 05:03:37;;;;;;;31.33;14.83;;;;;;;7.92;63.54;100291.80;114406;1206;103062;-81
2021/03/30 05:06:04;;;;;;;30.50;16.20;;;;;;;7.95;63.45;100286.34;114604;1206;103095;-80
2021/03/30 05:08:32;;;;;;;31.03;16.60;;;;;;;7.96;63.65;100284.57;114414;1206;103236;-80
2021/03/30 05:10:59;;;;;;;32.75;16.35;;;;;;;7.96;63.61;100282.77;114460;1209;103274;-80
2021/03/30 05:13:26;;;;;;;30.75;16.60;;;;;;;7.98;63.92;100283.56;114515;1206;103073;-82
2021/03/30 05:15:53;;;;;;;32.40;16.90;;;;;;;8.02;64.00;100284.31;115778;1206;101036;-80
2021/03/30 05:18:20;;;;;;;31.80;16.45;;;;;;;8.05;63.65;100282.38;115841;1206;101076;-85
2021/03/30 05:20:47;;;;;;;29.15;14.95;;;;;;;8.07;63.72;100278.80;115850;1206;101051;-82
2021/03/30 05:23:14;;;;;;;31.90;15.40;;;;;;;8.10;63.74;100278.67;115860;1206;101130;-80
2021/03/30 05:25:41;;;;;;;32.00;14.60;;;;;;;8.13;63.93;100289.14;115678;1206;101083;-78
2021/03/30 05:28:08;;;;;;;30.03;14.57;;;;;;;8.13;63.60;100284.72;115689;1207;101081;-81
2021/03/30 05:30:35;;;;;;;28.50;14.70;;;;;;;8.15;63.93;100280.19;114952;1206;103136;-80
2021/03/30 05:33:02;;;;;;;26.97;14.70;;;;;;;8.18;63.98;100277.41;114451;1206;103127;-77
2021/03/30 05:35:29;;;;;;;28.80;16.10;;;;;;;8.22;63.92;100279.92;114494;1206;103085;-79
2021/03/30 05:38:01;;;;;;;27.10;13.90;;;;;;;8.23;64.33;100277.23;114480;1206;103162;-82
2021/03/30 05:40:28;;;;;;;30.15;15.90;;;;;;;8.23;64.03;100285.18;114460;1209;103178;-81
2021/03/30 05:43:00;;;;;;;27.45;15.30;;;;;;;8.24;64.23;100286.02;114435;1208;103235;-83
2021/03/30 05:45:26;;;;;;;27.70;15.20;;;;;;;8.24;64.34;100284.25;114465;1209;103172;-81
2021/03/30 05:47:55;;;;;;;29.33;14.93;;;;;;;8.22;63.93;100288.75;114506;1206;103083;-83
2021/03/30 05:50:27;;;;;;;27.75;14.75;;;;;;;8.24;64.43;100281.59;114461;1206;103222;-83
2021/03/30 05:53:06;;;;;;;26.80;13.80;;;;;;;8.23;64.25;100282.53;114471;1206;103101;-83
2021/03/30 05:55:45;;;;;;;25.60;14.10;;;;;;;8.23;64.42;100285.18;114457;1209;103309;-85
2021/03/30 05:58:17;;;;;;;26.70;14.60;;;;;;;8.24;64.02;100281.59;114436;1206;103914;-83
2021/03/30 06:00:49;;;;;;;27.70;14.43;;;;;;;8.26;64.17;100289.47;114540;1206;103171;-85
2021/03/30 06:03:25;;;;;;;27.70;14.70;;;;;;;8.28;64.39;100287.62;114648;1206;103095;-80
2021/03/30 06:05:54;;;;;;;24.40;13.20;;;;;;;8.29;64.36;100281.39;114509;1206;103168;-81
2021/03/30 06:08:26;;;;;;;26.27;14.53;;;;;;;8.31;64.44;100290.13;114524;1206;103140;-81
2021/03/30 06:10:58;;;;;;;27.85;14.30;;;;;;;8.31;64.82;100285.71;114479;1209;103097;-82
2021/03/30 06:13:50;;;;;;;24.77;12.87;;;;;;;8.30;64.66;100288.41;114505;1206;103120;-83
2021/03/30 06:16:24;;;;;;;26.33;12.77;;;;;;;8.28;64.52;100288.49;114516;1206;103059;-83
2021/03/30 06:19:15;;;;;;;28.90;12.20;;;;;;;8.29;64.94;100284.92;114532;1206;103056;-83
2021/03/30 06:21:48;;;;;;;22.00;11.80;;;;;;;8.30;64.68;100293.72;114482;1206;103303;-84
2021/03/30 06:24:20;;;;;;;23.60;12.05;;;;;;;8.31;64.76;100291.02;114473;1206;103647;-81
2021/03/30 06:27:16;;;;;;;24.40;12.40;;;;;;;8.31;64.69;100291.02;114508;1206;103059;-81
2021/03/30 06:29:48;;;;;;;21.90;11.60;;;;;;;8.32;64.94;100297.16;114461;1209;103104;-83
2021/03/30 06:32:22;;;;;;;20.70;11.10;;;;;;;8.34;64.82;100290.00;114158;1206;103242;-81
2021/03/30 06:34:57;;;;;;;;;;;;;;;8.35;65.18;100291.73;114430;1214;103222;-83
2021/03/30 06:37:41;;;;;;;20.75;10.50;;;;;;;8.35;65.03;100292.58;114443;1206;103098;-83
2021/03/30 06:40:11;;;;;;;20.70;10.87;;;;;;;8.35;64.80;100294.38;114405;1206;103201;-82
2021/03/30 06:42:45;;;;;;;23.50;10.40;;;;;;;8.34;64.86;100300.61;114497;1206;103219;-83
2021/03/30 06:45:22;;;;;;;20.30;10.60;;;;;;;8.35;65.13;100305.83;114543;1206;103123;-80
2021/03/30 06:48:02;;;;;;;27.40;13.00;;;;;;;8.38;65.39;100307.50;114458;1206;103238;-83
2021/03/30 06:50:35;;;;;;;23.37;11.40;;;;;;;8.41;65.38;100309.14;114418;1206;103066;-81
2021/03/30 06:53:12;;;;;;;24.45;11.90;;;;;;;8.42;65.18;100309.09;115417;1206;103082;-81
2021/03/30 06:55:56;;;;;;;25.80;13.35;;;;;;;8.45;65.06;100313.39;115251;1206;101204;-80
2021/03/30 06:58:25;;;;;;;25.60;13.10;;;;;;;8.47;65.38;100311.53;114480;1206;103165;-82
2021/03/30 07:00:57;;;;;;;26.20;12.80;;;;;;;8.46;65.36;100310.69;114517;1207;103178;-82
2021/03/30 07:03:29;;;;;;;24.35;12.10;;;;;;;8.48;65.25;100308.86;114510;1207;103255;-80
2021/03/30 07:05:56;;;;;;;25.00;12.55;;;;;;;8.49;65.28;100307.94;114508;1208;103612;-81
2021/03/30 07:08:23;;;;;;;23.70;12.30;;;;;;;8.52;65.66;100311.38;114450;1209;103177;-82
2021/03/30 07:10:55;;;;;;;26.10;13.00;;;;;;;8.51;65.46;100307.84;114828;1206;103117;-82
2021/03/30 07:13:26;;;;;;;26.10;13.05;;;;;;;8.54;65.37;100317.48;114507;1206;103236;-82
2021/03/30 07:16:20;;;;;;;26.00;13.10;;;;;;;8.57;65.22;100309.36;114495;1206;103098;-85
2021/03/30 07:18:59;;;;;;;25.35;12.20;;;;;;;8.60;65.78;100312.75;114464;1206;103165;-83
2021/03/30 07:21:35;;;;;;;25.45;12.40;;;;;;;8.64;65.77;100314.34;114503;1206;103136;-80
2021/03/30 07:24:12;;;;;;;25.25;12.50;;;;;;;8.68;65.71;100315.05;114538;1206;103082;-81
2021/03/30 07:27:04;;;;;;;25.25;13.30;;;;;;;8.71;65.67;100316.72;114501;1206;103156;-79
2021/03/30 07:29:46;;;;;;;26.55;13.45;;;;;;;8.73;65.58;100317.52;114470;1206;103117;-81
2021/03/30 07:32:35;;;;;;;24.60;13.70;;;;;;;8.77;65.51;100311.11;114540;1206;103625;-82
2021/03/30 07:35:11;;;;;;;27.65;13.75;;;;;;;8.79;65.88;100312.78;114500;1206;103102;-80
2021/03/30 07:37:58;;;;;;;27.20;13.45;;;;;;;8.84;65.73;100309.91;114488;1206;103145;-81
2021/03/30 07:40:25;;;;;;;25.00;12.40;;;;;;;8.87;65.49;100317.73;114535;1206;102465;-82
2021/03/30 07:42:58;;;;;;;25.77;14.00;;;;;;;8.88;65.79;100311.49;114498;1206;103047;-83
2021/03/30 07:45:35;;;;;;;27.00;14.80;;;;;;;8.88;65.74;100314.14;114496;1206;103296;-82
2021/03/30 07:48:17;;;;;;;24.70;13.90;;;;;;;8.93;65.95;100317.45;114425;1206;103538;-81
2021/03/30 07:51:07;;;;;;;26.10;13.10;;;;;;;8.97;66.22;100312.85;114518;1206;103211;-81
2021/03/30 07:53:40;;;;;;;32.05;15.40;;;;;;;8.98;65.72;100314.58;114439;1206;103232;-82
2021/03/30 07:56:13;;;;;;;;;;;;;;;8.99;66.39;100318.95;114521;1214;103059;-82
2021/03/30 07:58:46;;;;;;;28.40;14.95;;;;;;;8.98;66.30;100319.88;114470;1206;103095;-82
2021/03/30 08:01:14;;;;;;;29.75;15.75;;;;;;;9.03;66.10;100328.50;114483;1206;103127;-82
2021/03/30 08:03:48;;;;;;;34.55;17.30;;;;;;;9.05;66.26;100326.64;114595;1206;103094;-81
2021/03/30 08:06:48;;;;;;;30.80;16.30;;;;;;;9.07;66.06;100327.43;114061;1206;103145;-81
2021/03/30 08:09:19;;;;;;;31.40;16.60;;;;;;;9.12;66.42;100329.89;114418;1206;103053;-80
2021/03/30 08:11:54;;;;;;;30.35;16.75;;;;;;;9.16;66.18;100334.13;115002;1206;103053;-81
2021/03/30 08:14:26;;;;;;;25.47;14.20;;;;;;;9.19;66.51;100336.61;114390;1206;103283;-81
2021/03/30 08:17:10;;;;;;;30.35;16.75;;;;;;;9.19;66.14;100336.61;114536;1206;103140;-81
2021/03/30 08:19:53;;;;;;;29.75;15.95;;;;;;;9.18;66.29;100337.54;114389;1206;103206;-82
2021/03/30 08:22:20;;;;;;;29.70;16.40;;;;;;;9.22;66.15;100351.55;114477;1206;103137;-83
2021/03/30 08:24:52;;;;;;;31.35;17.10;;;;;;;9.25;66.34;100346.09;114394;1206;103223;-81
2021/03/30 08:27:31;;;;;;;32.80;17.60;;;;;;;9.30;66.60;100345.88;114403;1206;103143;-80
2021/03/30 08:30:24;;;;;;;30.90;17.85;;;;;;;9.33;66.23;100349.27;114452;1206;103082;-82
2021/03/30 08:32:59;;;;;;;32.15;18.75;;;;;;;9.34;66.50;100340.36;114427;1206;103089;-83
2021/03/30 08:35:30;;;;;;;29.75;17.90;;;;;;;9.39;66.37;100343.63;114358;1206;103255;-81
2021/03/30 08:38:02;;;;;;;30.65;17.85;;;;;;;9.40;66.41;100349.83;114432;1206;103124;-78
2021/03/30 08:40:35;;;;;;;30.50;18.70;;;;;;;9.39;66.62;100348.09;114425;1206;103127;-80
2021/03/30 08:43:15;;;;;;;32.25;19.45;;;;;;;9.42;66.41;100353.27;114458;1206;103050;-79
2021/03/30 08:46:11;;;;;;;31.10;18.00;;;;;;;9.44;66.33;100354.06;114415;1206;103108;-81
2021/03/30 08:48:48;;;;;;;32.37;18.33;;;;;;;9.43;66.67;100349.68;114446;1206;103204;-80
2021/03/30 08:51:20;;;;;;;35.05;18.10;;;;;;;9.45;66.64;100352.25;114376;1208;102211;-80
2021/03/30 08:53:48;;;;;;;32.90;19.35;;;;;;;9.48;66.37;100342.36;114471;1209;103095;-79
2021/03/30 08:56:27;;;;;;;36.17;21.57;;;;;;;9.52;66.69;100345.72;114461;1206;103060;-81
2021/03/30 08:58:57;;;;;;;37.40;20.90;;;;;;;9.56;66.66;100346.45;114366;1206;103200;-81
2021/03/30 09:01:25;;;;;;;33.60;19.75;;;;;;;9.60;66.78;100350.65;114456;1206;103095;-81
2021/03/30 09:03:53;;;;;;;32.90;19.70;;;;;;;9.65;66.73;100345.98;114428;1209;103059;-80
2021/03/30 09:06:28;;;;;;;35.30;20.00;;;;;;;9.71;66.85;100361.63;114473;1209;103522;-85
2021/03/30 09:08:55;;;;;;;32.25;19.10;;;;;;;9.76;66.80;100354.30;114509;1206;103552;-82
2021/03/30 09:11:28;;;;;;;32.50;18.63;;;;;;;9.80;66.82;100352.34;114446;1206;103219;-86
2021/03/30 09:14:07;;;;;;;30.60;18.05;;;;;;;9.82;66.97;100354.00;114481;1206;103053;-84
2021/03/30 09:16:36;;;;;;;32.20;18.30;;;;;;;9.88;66.81;100349.33;114494;1209;103091;-83
2021/03/30 09:19:32;;;;;;;34.10;18.55;;;;;;;9.90;66.84;100344.80;114423;1206;103165;-81
2021/03/30 09:22:26;;;;;;;31.50;18.40;;;;;;;9.92;67.02;100345.58;114417;1209;103543;-83
2021/03/30 09:27:41;;;;;;;33.55;17.70;;;;;;;9.96;67.02;100337.37;114433;1206;103053;-80
2021/03/30 09:30:19;;;;;;;29.05;17.35;;;;;;;10.00;66.82;100342.53;114445;1206;103060;-82
2021/03/30 09:32:50;;;;;;;33.55;18.50;;;;;;;10.02;67.01;100330.03;114338;1206;103293;-79
2021/03/30 09:35:23;;;;;;;31.50;18.50;;;;;;;10.05;67.00;100329.88;114503;1206;103092;-85
2021/03/30 09:37:58;;;;;;;36.95;17.50;;;;;;;10.09;67.00;100334.95;114451;1206;103166;-82
2021/03/30 09:40:42;;;;;;;30.90;18.10;;;;;;;10.17;67.18;100333.70;113974;1209;103140;-82
2021/03/30 09:43:16;;;;;;;32.40;18.20;;;;;;;10.27;67.04;100334.97;114458;1206;103056;-82
2021/03/30 09:45:48;;;;;;;31.90;18.60;;;;;;;10.33;67.13;100331.99;114409;1206;103108;-83
2021/03/30 09:48:19;;;;;;;29.20;17.50;;;;;;;10.40;67.19;100333.41;114441;1209;103158;-81
2021/03/30 09:50:50;;;;;;;31.23;18.23;;;;;;;10.48;67.16;100325.05;114429;1206;103203;-84
2021/03/30 09:53:22;;;;;;;31.70;18.15;;;;;;;10.57;67.14;100332.55;114207;1206;103124;-81
2021/03/30 09:55:50;;;;;;;34.25;19.00;;;;;;;10.62;67.09;100329.64;114249;1206;103162;-82
2021/03/30 09:58:22;;;;;;;33.10;18.60;;;;;;;10.69;67.30;100335.48;114397;1206;103088;-86
2021/03/30 10:00:54;;;;;;;32.70;18.60;;;;;;;10.75;67.28;100336.98;114587;1206;103050;-83
2021/03/30 10:03:26;;;;;;;32.60;19.80;;;;;;;10.77;67.07;100335.09;114577;1206;103165;-85
2021/03/30 10:05:58;;;;;;;33.85;19.60;;;;;;;10.76;67.32;100336.88;114297;1206;103579;-83
2021/03/30 10:08:29;;;;;;;35.50;20.20;;;;;;;10.78;67.24;100335.00;114265;1208;103048;-81
2021/03/30 10:10:59;;;;;;;37.15;20.40;;;;;;;10.81;67.24;100320.66;114406;1206;103054;-83
2021/03/30 10:13:30;;;;;;;33.90;19.95;;;;;;;10.83;67.20;100327.64;114370;1206;103075;-82
2021/03/30 10:16:07;;;;;;;34.75;21.55;;;;;;;10.85;67.29;100336.40;114365;1206;103054;-85
2021/03/30 10:18:37;;;;;;;32.55;20.35;;;;;;;10.89;67.41;100321.11;114224;1209;103118;-83
2021/03/30 10:21:12;;;;;;;31.40;18.80;;;;;;;10.92;67.21;100323.61;114283;1206;103121;-79
2021/03/30 10:23:43;;;;;;;34.80;21.10;;;;;;;10.94;67.26;100323.55;114270;1206;103092;-83
2021/03/30 10:26:25;;;;;;;;;;;;;;;10.98;67.66;100317.11;114267;1215;103108;-84
2021/03/30 10:28:57;;;;;;;32.05;20.00;;;;;;;11.02;67.39;100321.30;114255;1206;103148;-81
2021/03/30 10:31:31;;;;;;;39.93;23.93;;;;;;;11.06;67.37;100320.19;114220;1206;103191;-86
2021/03/30 10:33:59;;;;;;;38.37;21.47;;;;;;;11.11;67.63;100312.81;114628;1206;103079;-79
2021/03/30 10:36:30;;;;;;;38.90;23.30;;;;;;;11.16;67.51;100312.58;114355;1206;103155;-82
2021/03/30 10:39:02;;;;;;;35.97;21.40;;;;;;;11.22;67.48;100314.03;114432;1206;103091;-82
2021/03/30 10:41:36;;;;;;;35.65;22.85;;;;;;;11.24;67.67;100310.32;114407;1206;103191;-82
2021/03/30 10:44:06;;;;;;;35.40;22.20;;;;;;;11.27;67.55;100311.97;114467;1206;103068;-80
2021/03/30 10:46:49;;;;;;;37.70;24.10;;;;;;;11.27;67.56;100315.48;114432;1206;103079;-82
2021/03/30 10:49:16;;;;;;;37.13;25.00;;;;;;;11.31;67.63;100311.70;114434;1206;103168;-81
2021/03/30 10:51:46;;;;;;;37.40;22.93;;;;;;;11.35;67.66;100316.86;114438;1204;103538;-81
2021/03/30 10:54:19;;;;;;;38.30;23.80;;;;;;;11.35;67.67;100315.08;114401;1206;103159;-79
2021/03/30 10:56:47;;;;;;;40.90;23.65;;;;;;;11.35;67.75;100312.41;114374;1206;103121;-82
2021/03/30 10:59:15;;;;;;;35.20;22.70;;;;;;;11.33;67.52;100314.30;114397;1206;103195;-81
2021/03/30 11:01:43;;;;;;;35.90;22.80;;;;;;;11.30;67.69;100317.13;114489;1206;103095;-80
2021/03/30 11:04:12;;;;;;;42.05;23.70;;;;;;;11.30;67.78;100315.31;114419;1206;103178;-81
2021/03/30 11:06:41;;;;;;;38.75;23.45;;;;;;;11.32;67.98;100312.58;114378;1209;103287;-80
2021/03/30 11:09:08;;;;;;;38.30;24.80;;;;;;;11.32;67.82;100315.24;114447;1209;103213;-80
2021/03/30 11:11:36;;;;;;;35.85;24.00;;;;;;;11.35;67.81;100315.08;114402;1206;103057;-81
2021/03/30 11:14:08;;;;;;;36.20;22.30;;;;;;;11.33;67.84;100316.97;114469;1206;103133;-82
2021/03/30 11:16:35;;;;;;;36.70;23.20;;;;;;;11.34;68.00;100315.14;114322;1206;103079;-79
2021/03/30 11:19:03;;;;;;;40.30;22.90;;;;;;;11.35;67.89;100308.87;114260;1208;103720;-81
2021/03/30 11:21:30;;;;;;;35.20;21.93;;;;;;;11.37;68.05;100313.19;114134;1206;103089;-81
2021/03/30 11:24:02;;;;;;;38.85;22.65;;;;;;;11.36;67.85;100315.91;114149;1206;103124;-81
2021/03/30 11:26:31;;;;;;;38.05;22.30;;;;;;;11.37;67.84;100317.64;114276;1208;103098;-83
2021/03/30 11:28:59;;;;;;;41.60;23.90;;;;;;;11.37;68.23;100312.31;114266;1209;102210;-81
2021/03/30 11:34:10;;;;;;;37.00;22.50;;;;;;;11.41;68.16;100308.53;114299;1206;103188;-82
2021/03/30 11:36:42;;;;;;;34.20;21.60;;;;;;;11.41;67.98;100308.53;114348;1209;103098;-83